Blencoe, Iowa
Current Conditions -  °F | °C
As of 1:54 PM on Friday 31 Oct 2014 (Local Time) from KTQE Reporting Station
Clear Clear  
Wind Chill: 36°   Ceiling: Unl
Heat Index: 41°   Visibility: 10mi
Dew Point: 19°   Wind: 7mph
Humidity: 41%   Direction: 360°N
Pressure: 30.54"   Gusts: NA
Location:  41.93°N, 96.08°W
Report Text: KTQE 311854Z AUTO 36006KT 10SM CLR 05/M07 A3054 RMK AO2 SLP346 T00501072
Loading
Personal Weather Stations






























Interactive Weather Map
Tropical Storm Tracking
New forecast layout! Learn more

10-Day Weather Forecast

Advertisements
Track Severe Weather on mobile